sensor_id;sensor_type;location;lat;lon;timestamp;pressure;altitude;pressure_sealevel;temperature;humidity
2711;BME280;20721;47.402;8.550;2022-11-15T00:00:55;95988;;;9.52;68.36
2711;BME280;20721;47.402;8.550;2022-11-15T00:01:55;95992;;;9.62;67.97
2711;BME280;20721;47.402;8.550;2022-11-15T00:02:55;95988;;;9.70;67.52
2711;BME280;20721;47.402;8.550;2022-11-15T00:03:55;95987;;;9.76;67.18
2711;BME280;20721;47.402;8.550;2022-11-15T00:04:55;95984;;;9.82;66.70
2711;BME280;20721;47.402;8.550;2022-11-15T00:06:00;95983;;;9.86;66.42
2711;BME280;20721;47.402;8.550;2022-11-15T00:06:55;95981;;;9.88;66.25
2711;BME280;20721;47.402;8.550;2022-11-15T00:07:56;95978;;;9.91;66.12
2711;BME280;20721;47.402;8.550;2022-11-15T00:08:57;95975;;;9.87;65.92
2711;BME280;20721;47.402;8.550;2022-11-15T00:09:55;95971;;;9.85;65.68
2711;BME280;20721;47.402;8.550;2022-11-15T00:10:56;95975;;;9.81;65.75
2711;BME280;20721;47.402;8.550;2022-11-15T00:11:55;95977;;;9.79;65.81
2711;BME280;20721;47.402;8.550;2022-11-15T00:12:55;95977;;;9.77;65.91
2711;BME280;20721;47.402;8.550;2022-11-15T00:14:55;95979;;;9.74;65.92
2711;BME280;20721;47.402;8.550;2022-11-15T00:15:57;95981;;;9.69;65.95
2711;BME280;20721;47.402;8.550;2022-11-15T00:16:55;95986;;;9.65;66.02
2711;BME280;20721;47.402;8.550;2022-11-15T00:17:55;95983;;;9.61;66.15
2711;BME280;20721;47.402;8.550;2022-11-15T00:18:57;95984;;;9.58;66.10
2711;BME280;20721;47.402;8.550;2022-11-15T00:19:55;95982;;;9.55;66.16
2711;BME280;20721;47.402;8.550;2022-11-15T00:20:55;95980;;;9.53;66.24
2711;BME280;20721;47.402;8.550;2022-11-15T00:21:55;95979;;;9.51;66.22
2711;BME280;20721;47.402;8.550;2022-11-15T00:23:55;95979;;;9.49;66.14
2711;BME280;20721;47.402;8.550;2022-11-15T00:24:55;95981;;;9.44;66.28
2711;BME280;20721;47.402;8.550;2022-11-15T00:25:56;95976;;;9.37;66.51
2711;BME280;20721;47.402;8.550;2022-11-15T00:26:55;95972;;;9.34;66.70
2711;BME280;20721;47.402;8.550;2022-11-15T00:27:56;95972;;;9.32;66.63
2711;BME280;20721;47.402;8.550;2022-11-15T00:28:55;95972;;;9.28;66.64
2711;BME280;20721;47.402;8.550;2022-11-15T00:29:55;95965;;;9.27;66.71
2711;BME280;20721;47.402;8.550;2022-11-15T00:31:04;95966;;;9.26;66.78
2711;BME280;20721;47.402;8.550;2022-11-15T00:31:55;95966;;;9.24;66.83
2711;BME280;20721;47.402;8.550;2022-11-15T00:32:55;95963;;;9.22;66.86
2711;BME280;20721;47.402;8.550;2022-11-15T00:33:55;95962;;;9.18;66.81
2711;BME280;20721;47.402;8.550;2022-11-15T00:34:55;95962;;;9.17;66.84
2711;BME280;20721;47.402;8.550;2022-11-15T00:35:59;95960;;;9.08;67.09
2711;BME280;20721;47.402;8.550;2022-11-15T00:36:55;95960;;;9.02;67.34
2711;BME280;20721;47.402;8.550;2022-11-15T00:37:55;95958;;;9.01;67.38
2711;BME280;20721;47.402;8.550;2022-11-15T00:39:55;95962;;;9.03;67.35
2711;BME280;20721;47.402;8.550;2022-11-15T00:40:55;95963;;;9.06;67.42
2711;BME280;20721;47.402;8.550;2022-11-15T00:41:55;95962;;;9.10;67.39
2711;BME280;20721;47.402;8.550;2022-11-15T00:42:55;95960;;;9.14;67.21
2711;BME280;20721;47.402;8.550;2022-11-15T00:43:55;95956;;;9.16;67.12
2711;BME280;20721;47.402;8.550;2022-11-15T00:44:55;95956;;;9.19;67.06
2711;BME280;20721;47.402;8.550;2022-11-15T00:45:55;95958;;;9.20;67.11
2711;BME280;20721;47.402;8.550;2022-11-15T00:46:55;95959;;;9.17;67.24
2711;BME280;20721;47.402;8.550;2022-11-15T00:47:55;95957;;;9.13;67.44
2711;BME280;20721;47.402;8.550;2022-11-15T00:48:55;95957;;;9.11;67.62
2711;BME280;20721;47.402;8.550;2022-11-15T00:49:55;95963;;;9.09;67.68
2711;BME280;20721;47.402;8.550;2022-11-15T00:51:55;95961;;;9.10;67.59
2711;BME280;20721;47.402;8.550;2022-11-15T00:52:55;95962;;;9.15;67.59
2711;BME280;20721;47.402;8.550;2022-11-15T00:53:55;95960;;;9.16;67.50
2711;BME280;20721;47.402;8.550;2022-11-15T00:55:55;95966;;;9.18;67.53
2711;BME280;20721;47.402;8.550;2022-11-15T00:56:55;95969;;;9.21;67.32
2711;BME280;20721;47.402;8.550;2022-11-15T00:57:55;95966;;;9.22;67.32
2711;BME280;20721;47.402;8.550;2022-11-15T00:58:55;95972;;;9.24;67.15
2711;BME280;20721;47.402;8.550;2022-11-15T00:59:55;95974;;;9.27;67.20
2711;BME280;20721;47.402;8.550;2022-11-15T01:00:55;95975;;;9.28;67.24
2711;BME280;20721;47.402;8.550;2022-11-15T01:01:55;95969;;;9.30;67.10
2711;BME280;20721;47.402;8.550;2022-11-15T01:02:55;95973;;;9.32;66.96
2711;BME280;20721;47.402;8.550;2022-11-15T01:04:01;95974;;;9.33;66.81
2711;BME280;20721;47.402;8.550;2022-11-15T01:05:58;95971;;;9.29;66.58
2711;BME280;20721;47.402;8.550;2022-11-15T01:06:55;95972;;;9.27;66.72
2711;BME280;20721;47.402;8.550;2022-11-15T01:07:55;95972;;;9.22;66.77
2711;BME280;20721;47.402;8.550;2022-11-15T01:08:55;95967;;;9.20;66.91
2711;BME280;20721;47.402;8.550;2022-11-15T01:09:55;95968;;;9.15;66.97
2711;BME280;20721;47.402;8.550;2022-11-15T01:10:59;95968;;;9.13;67.12
2711;BME280;20721;47.402;8.550;2022-11-15T01:11:55;95963;;;9.14;67.17
2711;BME280;20721;47.402;8.550;2022-11-15T01:12:55;95962;;;9.10;67.12
2711;BME280;20721;47.402;8.550;2022-11-15T01:13:55;95966;;;9.07;67.33
2711;BME280;20721;47.402;8.550;2022-11-15T01:14:55;95965;;;9.06;67.43
2711;BME280;20721;47.402;8.550;2022-11-15T01:15:55;95967;;;9.07;67.21
2711;BME280;20721;47.402;8.550;2022-11-15T01:16:55;95962;;;9.05;67.24
2711;BME280;20721;47.402;8.550;2022-11-15T01:17:55;95962;;;9.03;67.37
2711;BME280;20721;47.402;8.550;2022-11-15T01:18:55;95960;;;9.04;67.35
2711;BME280;20721;47.402;8.550;2022-11-15T01:19:55;95961;;;9.03;67.36
2711;BME280;20721;47.402;8.550;2022-11-15T01:20:55;95954;;;9.05;67.33
2711;BME280;20721;47.402;8.550;2022-11-15T01:21:55;95952;;;9.09;67.33
2711;BME280;20721;47.402;8.550;2022-11-15T01:22:55;95952;;;9.11;67.14
2711;BME280;20721;47.402;8.550;2022-11-15T01:23:55;95944;;;9.12;67.08
2711;BME280;20721;47.402;8.550;2022-11-15T01:24:55;95944;;;9.05;66.79
2711;BME280;20721;47.402;8.550;2022-11-15T01:25:59;95943;;;8.89;67.51
2711;BME280;20721;47.402;8.550;2022-11-15T01:26:55;95938;;;8.83;67.59
2711;BME280;20721;47.402;8.550;2022-11-15T01:27:55;95933;;;8.82;67.88
2711;BME280;20721;47.402;8.550;2022-11-15T01:28:55;95931;;;8.76;68.04
2711;BME280;20721;47.402;8.550;2022-11-15T01:29:55;95927;;;8.65;68.42
2711;BME280;20721;47.402;8.550;2022-11-15T01:30:57;95925;;;8.46;69.24
2711;BME280;20721;47.402;8.550;2022-11-15T01:31:55;95923;;;8.48;69.38
2711;BME280;20721;47.402;8.550;2022-11-15T01:32:55;95925;;;8.55;69.36
2711;BME280;20721;47.402;8.550;2022-11-15T01:33:55;95925;;;8.66;69.16
2711;BME280;20721;47.402;8.550;2022-11-15T01:34:55;95927;;;8.80;68.68
2711;BME280;20721;47.402;8.550;2022-11-15T01:35:55;95923;;;8.91;68.33
2711;BME280;20721;47.402;8.550;2022-11-15T01:36:55;95923;;;8.99;67.99
2711;BME280;20721;47.402;8.550;2022-11-15T01:37:55;95921;;;9.05;67.74
2711;BME280;20721;47.402;8.550;2022-11-15T01:38:56;95918;;;9.08;67.49
2711;BME280;20721;47.402;8.550;2022-11-15T01:39:55;95915;;;9.11;67.37
2711;BME280;20721;47.402;8.550;2022-11-15T01:40:55;95911;;;9.18;67.24
2711;BME280;20721;47.402;8.550;2022-11-15T01:41:55;95908;;;9.23;67.05
2711;BME280;20721;47.402;8.550;2022-11-15T01:42:55;95904;;;9.28;66.95
2711;BME280;20721;47.402;8.550;2022-11-15T01:43:56;95899;;;9.32;66.68
2711;BME280;20721;47.402;8.550;2022-11-15T01:44:55;95896;;;9.34;66.60
2711;BME280;20721;47.402;8.550;2022-11-15T01:46:47;95896;;;9.37;66.38
2711;BME280;20721;47.402;8.550;2022-11-15T01:46:55;95897;;;9.41;66.27
2711;BME280;20721;47.402;8.550;2022-11-15T01:47:55;95895;;;9.42;66.24
2711;BME280;20721;47.402;8.550;2022-11-15T01:50:56;95893;;;9.45;66.15
2711;BME280;20721;47.402;8.550;2022-11-15T01:51:56;95892;;;9.46;66.04
2711;BME280;20721;47.402;8.550;2022-11-15T01:52:55;95893;;;9.47;66.00
2711;BME280;20721;47.402;8.550;2022-11-15T01:53:56;95892;;;9.49;66.04
2711;BME280;20721;47.402;8.550;2022-11-15T01:54:57;95892;;;9.51;65.97
2711;BME280;20721;47.402;8.550;2022-11-15T01:55:55;95895;;;9.53;65.88
2711;BME280;20721;47.402;8.550;2022-11-15T01:56:57;95894;;;9.55;65.71
2711;BME280;20721;47.402;8.550;2022-11-15T01:57:58;95893;;;9.56;65.71
2711;BME280;20721;47.402;8.550;2022-11-15T01:58:56;95892;;;9.57;65.56
2711;BME280;20721;47.402;8.550;2022-11-15T01:59:55;95889;;;9.56;65.54
2711;BME280;20721;47.402;8.550;2022-11-15T02:00:55;95892;;;9.58;65.45
2711;BME280;20721;47.402;8.550;2022-11-15T02:01:55;95886;;;9.60;65.48
2711;BME280;20721;47.402;8.550;2022-11-15T02:02:55;95888;;;9.58;65.43
2711;BME280;20721;47.402;8.550;2022-11-15T02:04:00;95885;;;9.56;65.54
2711;BME280;20721;47.402;8.550;2022-11-15T02:05:55;95886;;;9.55;65.47
2711;BME280;20721;47.402;8.550;2022-11-15T02:06:56;95888;;;9.57;65.47
2711;BME280;20721;47.402;8.550;2022-11-15T02:07:55;95888;;;9.58;65.33
2711;BME280;20721;47.402;8.550;2022-11-15T02:08:56;95888;;;9.60;65.39
2711;BME280;20721;47.402;8.550;2022-11-15T02:12:55;95886;;;9.61;65.36
2711;BME280;20721;47.402;8.550;2022-11-15T02:14:55;95881;;;9.63;65.29
2711;BME280;20721;47.402;8.550;2022-11-15T02:18:15;95879;;;9.64;65.26
2711;BME280;20721;47.402;8.550;2022-11-15T02:18:57;95881;;;9.65;65.13
2711;BME280;20721;47.402;8.550;2022-11-15T02:20:58;95880;;;9.60;65.18
2711;BME280;20721;47.402;8.550;2022-11-15T02:22:03;95883;;;9.58;65.21
2711;BME280;20721;47.402;8.550;2022-11-15T02:27:16;95879;;;9.54;65.77
2711;BME280;20721;47.402;8.550;2022-11-15T02:31:59;95879;;;9.66;65.81
2711;BME280;20721;47.402;8.550;2022-11-15T02:32:57;95876;;;9.70;65.70
2711;BME280;20721;47.402;8.550;2022-11-15T02:35:08;95873;;;9.75;65.60
2711;BME280;20721;47.402;8.550;2022-11-15T02:37:05;95874;;;9.80;65.48
2711;BME280;20721;47.402;8.550;2022-11-15T02:37:56;95869;;;9.81;65.50
2711;BME280;20721;47.402;8.550;2022-11-15T02:39:07;95867;;;9.82;65.43
2711;BME280;20721;47.402;8.550;2022-11-15T02:40:57;95863;;;9.79;65.46
2711;BME280;20721;47.402;8.550;2022-11-15T02:42:07;95863;;;9.81;65.46
2711;BME280;20721;47.402;8.550;2022-11-15T02:43:08;95859;;;9.82;65.50
2711;BME280;20721;47.402;8.550;2022-11-15T02:44:01;95851;;;9.80;65.33
2711;BME280;20721;47.402;8.550;2022-11-15T02:44:56;95845;;;9.70;65.64
2711;BME280;20721;47.402;8.550;2022-11-15T02:45:58;95848;;;9.64;66.02
2711;BME280;20721;47.402;8.550;2022-11-15T02:47:06;95846;;;9.66;66.08
2711;BME280;20721;47.402;8.550;2022-11-15T02:47:56;95851;;;9.68;66.09
2711;BME280;20721;47.402;8.550;2022-11-15T02:48:56;95847;;;9.70;66.01
2711;BME280;20721;47.402;8.550;2022-11-15T02:49:57;95848;;;9.73;65.96
2711;BME280;20721;47.402;8.550;2022-11-15T02:50:55;95847;;;9.76;65.88
2711;BME280;20721;47.402;8.550;2022-11-15T02:51:56;95847;;;9.79;65.79
2711;BME280;20721;47.402;8.550;2022-11-15T02:52:56;95846;;;9.81;65.67
2711;BME280;20721;47.402;8.550;2022-11-15T02:53:55;95847;;;9.82;65.60
2711;BME280;20721;47.402;8.550;2022-11-15T02:54:56;95847;;;9.84;65.49
2711;BME280;20721;47.402;8.550;2022-11-15T02:55:56;95844;;;9.87;65.27
2711;BME280;20721;47.402;8.550;2022-11-15T02:56:57;95843;;;9.89;65.19
2711;BME280;20721;47.402;8.550;2022-11-15T02:58:01;95843;;;9.90;65.04
2711;BME280;20721;47.402;8.550;2022-11-15T03:02:57;95834;;;9.76;65.33
2711;BME280;20721;47.402;8.550;2022-11-15T03:06:03;95835;;;9.75;65.35
2711;BME280;20721;47.402;8.550;2022-11-15T03:06:59;95835;;;9.76;65.35
2711;BME280;20721;47.402;8.550;2022-11-15T03:08:06;95836;;;9.75;65.39
2711;BME280;20721;47.402;8.550;2022-11-15T03:10:01;95835;;;9.72;65.41
2711;BME280;20721;47.402;8.550;2022-11-15T03:11:02;95834;;;9.71;65.55
2711;BME280;20721;47.402;8.550;2022-11-15T03:12:57;95834;;;9.72;65.49
2711;BME280;20721;47.402;8.550;2022-11-15T03:13:57;95833;;;9.73;65.49
2711;BME280;20721;47.402;8.550;2022-11-15T03:16:15;95832;;;9.75;65.39
2711;BME280;20721;47.402;8.550;2022-11-15T03:18:00;95831;;;9.79;65.35
2711;BME280;20721;47.402;8.550;2022-11-15T03:18:59;95831;;;9.81;65.27
2711;BME280;20721;47.402;8.550;2022-11-15T03:19:57;95829;;;9.82;65.25
2711;BME280;20721;47.402;8.550;2022-11-15T03:20:56;95828;;;9.83;65.07
2711;BME280;20721;47.402;8.550;2022-11-15T03:21:56;95829;;;9.85;64.91
2711;BME280;20721;47.402;8.550;2022-11-15T03:22:58;95827;;;9.87;64.88
2711;BME280;20721;47.402;8.550;2022-11-15T03:24:57;95824;;;9.84;64.85
2711;BME280;20721;47.402;8.550;2022-11-15T03:25:56;95824;;;9.83;64.88
2711;BME280;20721;47.402;8.550;2022-11-15T03:26:56;95826;;;9.81;64.91
2711;BME280;20721;47.402;8.550;2022-11-15T03:27:57;95826;;;9.79;64.96
2711;BME280;20721;47.402;8.550;2022-11-15T03:28:59;95828;;;9.76;65.07
2711;BME280;20721;47.402;8.550;2022-11-15T03:29:58;95832;;;9.75;65.02
2711;BME280;20721;47.402;8.550;2022-11-15T03:32:56;95829;;;9.74;64.93
2711;BME280;20721;47.402;8.550;2022-11-15T03:33:56;95826;;;9.76;64.91
2711;BME280;20721;47.402;8.550;2022-11-15T03:35:56;95822;;;9.73;64.62
2711;BME280;20721;47.402;8.550;2022-11-15T03:36:56;95818;;;9.66;64.68
2711;BME280;20721;47.402;8.550;2022-11-15T03:37:58;95817;;;9.62;64.86
2711;BME280;20721;47.402;8.550;2022-11-15T03:38:56;95815;;;9.59;64.91
2711;BME280;20721;47.402;8.550;2022-11-15T03:39:56;95816;;;9.56;65.05
2711;BME280;20721;47.402;8.550;2022-11-15T03:41:00;95816;;;9.55;65.14
2711;BME280;20721;47.402;8.550;2022-11-15T03:43:01;95814;;;9.58;65.25
2711;BME280;20721;47.402;8.550;2022-11-15T03:43:57;95813;;;9.60;65.23
2711;BME280;20721;47.402;8.550;2022-11-15T03:47:06;95817;;;9.63;64.99
2711;BME280;20721;47.402;8.550;2022-11-15T03:49:00;95822;;;9.65;64.84
2711;BME280;20721;47.402;8.550;2022-11-15T03:49:58;95819;;;9.66;64.83
2711;BME280;20721;47.402;8.550;2022-11-15T03:50:56;95818;;;9.65;64.88
2711;BME280;20721;47.402;8.550;2022-11-15T03:51:56;95821;;;9.66;64.89
2711;BME280;20721;47.402;8.550;2022-11-15T03:52:56;95825;;;9.67;64.81
2711;BME280;20721;47.402;8.550;2022-11-15T03:54:56;95822;;;9.68;64.69
2711;BME280;20721;47.402;8.550;2022-11-15T03:55:56;95821;;;9.66;64.66
2711;BME280;20721;47.402;8.550;2022-11-15T03:56:56;95822;;;9.65;64.71
2711;BME280;20721;47.402;8.550;2022-11-15T03:57:57;95825;;;9.66;64.62
2711;BME280;20721;47.402;8.550;2022-11-15T03:59:56;95826;;;9.65;64.63
2711;BME280;20721;47.402;8.550;2022-11-15T04:00:56;95827;;;9.62;64.67
2711;BME280;20721;47.402;8.550;2022-11-15T04:01:56;95824;;;9.59;64.73
2711;BME280;20721;47.402;8.550;2022-11-15T04:02:56;95824;;;9.58;64.73
2711;BME280;20721;47.402;8.550;2022-11-15T04:06:56;95821;;;9.56;64.52
2711;BME280;20721;47.402;8.550;2022-11-15T04:07:56;95818;;;9.55;64.59
2711;BME280;20721;47.402;8.550;2022-11-15T04:11:56;95808;;;9.53;64.59
2711;BME280;20721;47.402;8.550;2022-11-15T04:12:56;95805;;;9.52;64.64
2711;BME280;20721;47.402;8.550;2022-11-15T04:15:08;95804;;;9.51;64.72
2711;BME280;20721;47.402;8.550;2022-11-15T04:15:56;95801;;;9.49;64.81
2711;BME280;20721;47.402;8.550;2022-11-15T04:16:56;95803;;;9.47;64.96
2711;BME280;20721;47.402;8.550;2022-11-15T04:17:56;95802;;;9.46;65.07
2711;BME280;20721;47.402;8.550;2022-11-15T04:19:06;95804;;;9.47;65.05
2711;BME280;20721;47.402;8.550;2022-11-15T04:20:07;95802;;;9.45;65.05
2711;BME280;20721;47.402;8.550;2022-11-15T04:21:07;95803;;;9.46;65.02
2711;BME280;20721;47.402;8.550;2022-11-15T04:22:07;95804;;;9.45;64.87
2711;BME280;20721;47.402;8.550;2022-11-15T04:23:07;95805;;;9.47;64.79
2711;BME280;20721;47.402;8.550;2022-11-15T04:24:06;95804;;;9.38;64.72
2711;BME280;20721;47.402;8.550;2022-11-15T04:24:56;95803;;;9.25;65.19
2711;BME280;20721;47.402;8.550;2022-11-15T04:25:56;95807;;;9.17;65.46
2711;BME280;20721;47.402;8.550;2022-11-15T04:26:56;95805;;;9.11;65.66
2711;BME280;20721;47.402;8.550;2022-11-15T04:27:56;95805;;;9.12;65.62
2711;BME280;20721;47.402;8.550;2022-11-15T04:29:06;95807;;;9.11;65.73
2711;BME280;20721;47.402;8.550;2022-11-15T04:29:56;95805;;;9.14;65.65
2711;BME280;20721;47.402;8.550;2022-11-15T04:30:56;95805;;;9.18;65.48
2711;BME280;20721;47.402;8.550;2022-11-15T04:31:56;95805;;;9.16;65.61
2711;BME280;20721;47.402;8.550;2022-11-15T04:32:56;95803;;;9.14;65.65
2711;BME280;20721;47.402;8.550;2022-11-15T04:33:56;95799;;;9.13;65.56
2711;BME280;20721;47.402;8.550;2022-11-15T04:34:56;95799;;;9.16;65.46
2711;BME280;20721;47.402;8.550;2022-11-15T04:37:06;95796;;;9.13;65.46
2711;BME280;20721;47.402;8.550;2022-11-15T04:37:56;95797;;;9.12;65.54
2711;BME280;20721;47.402;8.550;2022-11-15T04:38:56;95793;;;9.10;65.63
2711;BME280;20721;47.402;8.550;2022-11-15T04:39:56;95796;;;9.09;65.66
2711;BME280;20721;47.402;8.550;2022-11-15T04:40:56;95793;;;9.10;65.54
2711;BME280;20721;47.402;8.550;2022-11-15T04:41:56;95792;;;9.09;65.54
2711;BME280;20721;47.402;8.550;2022-11-15T04:43:03;95793;;;9.10;65.48
2711;BME280;20721;47.402;8.550;2022-11-15T04:43:56;95796;;;9.11;65.46
2711;BME280;20721;47.402;8.550;2022-11-15T04:44:56;95790;;;9.12;65.42
2711;BME280;20721;47.402;8.550;2022-11-15T04:46:56;95796;;;9.13;65.32
2711;BME280;20721;47.402;8.550;2022-11-15T04:47:56;95793;;;9.12;65.33
2711;BME280;20721;47.402;8.550;2022-11-15T04:48:59;95793;;;9.13;65.34
2711;BME280;20721;47.402;8.550;2022-11-15T04:49:56;95792;;;9.14;65.27
2711;BME280;20721;47.402;8.550;2022-11-15T04:56:56;95792;;;9.12;65.11
2711;BME280;20721;47.402;8.550;2022-11-15T04:57:58;95789;;;9.15;65.04
2711;BME280;20721;47.402;8.550;2022-11-15T04:58:56;95787;;;9.13;65.02
2711;BME280;20721;47.402;8.550;2022-11-15T04:59:56;95786;;;9.12;64.98
2711;BME280;20721;47.402;8.550;2022-11-15T05:00:56;95788;;;9.09;65.02
2711;BME280;20721;47.402;8.550;2022-11-15T05:01:56;95785;;;9.07;64.95
2711;BME280;20721;47.402;8.550;2022-11-15T05:03:06;95783;;;9.06;64.89
2711;BME280;20721;47.402;8.550;2022-11-15T05:04:06;95783;;;9.03;65.05
2711;BME280;20721;47.402;8.550;2022-11-15T05:04:56;95782;;;8.99;65.27
2711;BME280;20721;47.402;8.550;2022-11-15T05:06:56;95780;;;8.97;65.42
2711;BME280;20721;47.402;8.550;2022-11-15T05:09:56;95774;;;8.96;65.54
2711;BME280;20721;47.402;8.550;2022-11-15T05:10:56;95775;;;8.97;65.54
2711;BME280;20721;47.402;8.550;2022-11-15T05:11:56;95773;;;8.98;65.47
2711;BME280;20721;47.402;8.550;2022-11-15T05:12:56;95766;;;8.99;65.49
2711;BME280;20721;47.402;8.550;2022-11-15T05:15:56;95765;;;9.01;65.33
2711;BME280;20721;47.402;8.550;2022-11-15T05:16:56;95763;;;9.02;65.28
2711;BME280;20721;47.402;8.550;2022-11-15T05:17:58;95765;;;9.03;65.27
2711;BME280;20721;47.402;8.550;2022-11-15T05:19:56;95765;;;9.02;65.19
2711;BME280;20721;47.402;8.550;2022-11-15T05:20:56;95762;;;9.00;65.14
2711;BME280;20721;47.402;8.550;2022-11-15T05:22:56;95760;;;8.98;65.15
2711;BME280;20721;47.402;8.550;2022-11-15T05:23:56;95759;;;8.97;65.25
2711;BME280;20721;47.402;8.550;2022-11-15T05:25:59;95755;;;8.95;65.29
2711;BME280;20721;47.402;8.550;2022-11-15T05:26:56;95755;;;8.98;65.24
2711;BME280;20721;47.402;8.550;2022-11-15T05:27:56;95754;;;8.99;65.33
2711;BME280;20721;47.402;8.550;2022-11-15T05:28:57;95753;;;8.97;65.39
2711;BME280;20721;47.402;8.550;2022-11-15T05:31:00;95753;;;9.00;65.25
2711;BME280;20721;47.402;8.550;2022-11-15T05:32:56;95751;;;8.98;65.16
2711;BME280;20721;47.402;8.550;2022-11-15T05:33:56;95748;;;8.99;65.14
2711;BME280;20721;47.402;8.550;2022-11-15T05:34:56;95746;;;9.00;65.08
2711;BME280;20721;47.402;8.550;2022-11-15T05:36:56;95743;;;8.96;65.16
2711;BME280;20721;47.402;8.550;2022-11-15T05:38:56;95741;;;8.97;65.15
2711;BME280;20721;47.402;8.550;2022-11-15T05:40:56;95736;;;8.98;65.10
2711;BME280;20721;47.402;8.550;2022-11-15T05:42:00;95732;;;8.95;64.96
2711;BME280;20721;47.402;8.550;2022-11-15T05:42:56;95737;;;8.93;64.98
2711;BME280;20721;47.402;8.550;2022-11-15T05:43:56;95740;;;8.91;65.01
2711;BME280;20721;47.402;8.550;2022-11-15T05:44:56;95740;;;8.92;64.97
2711;BME280;20721;47.402;8.550;2022-11-15T05:45:56;95735;;;8.95;64.84
2711;BME280;20721;47.402;8.550;2022-11-15T05:49:56;95737;;;8.92;64.74
2711;BME280;20721;47.402;8.550;2022-11-15T05:50:56;95735;;;8.88;64.86
2711;BME280;20721;47.402;8.550;2022-11-15T05:51:56;95736;;;8.87;64.91
2711;BME280;20721;47.402;8.550;2022-11-15T05:53:02;95734;;;8.84;64.92
2711;BME280;20721;47.402;8.550;2022-11-15T05:53:56;95743;;;8.82;64.95
2711;BME280;20721;47.402;8.550;2022-11-15T05:54:56;95742;;;8.77;65.04
2711;BME280;20721;47.402;8.550;2022-11-15T05:55:56;95740;;;8.74;65.20
2711;BME280;20721;47.402;8.550;2022-11-15T05:56:56;95742;;;8.72;65.25
2711;BME280;20721;47.402;8.550;2022-11-15T05:57:56;95743;;;8.73;65.27
2711;BME280;20721;47.402;8.550;2022-11-15T05:59:56;95746;;;8.74;65.08
2711;BME280;20721;47.402;8.550;2022-11-15T06:00:56;95748;;;8.73;65.04
2711;BME280;20721;47.402;8.550;2022-11-15T06:01:56;95747;;;8.72;65.02
2711;BME280;20721;47.402;8.550;2022-11-15T06:02:56;95746;;;8.70;65.08
2711;BME280;20721;47.402;8.550;2022-11-15T06:06:57;95743;;;8.69;65.05
2711;BME280;20721;47.402;8.550;2022-11-15T06:07:57;95739;;;8.70;65.02
2711;BME280;20721;47.402;8.550;2022-11-15T06:08:56;95738;;;8.68;65.11
2711;BME280;20721;47.402;8.550;2022-11-15T06:09:56;95739;;;8.67;65.14
2711;BME280;20721;47.402;8.550;2022-11-15T06:10:56;95738;;;8.66;65.14
2711;BME280;20721;47.402;8.550;2022-11-15T06:11:56;95737;;;8.68;65.12
2711;BME280;20721;47.402;8.550;2022-11-15T06:13:00;95737;;;8.70;65.04
2711;BME280;20721;47.402;8.550;2022-11-15T06:13:56;95740;;;8.71;65.10
2711;BME280;20721;47.402;8.550;2022-11-15T06:14:56;95741;;;8.74;65.05
2711;BME280;20721;47.402;8.550;2022-11-15T06:15:56;95739;;;8.76;65.12
2711;BME280;20721;47.402;8.550;2022-11-15T06:16:56;95745;;;8.77;65.05
2711;BME280;20721;47.402;8.550;2022-11-15T06:17:57;95741;;;8.79;65.05
2711;BME280;20721;47.402;8.550;2022-11-15T06:18:56;95741;;;8.80;64.90
2711;BME280;20721;47.402;8.550;2022-11-15T06:19:56;95739;;;8.84;64.90
2711;BME280;20721;47.402;8.550;2022-11-15T06:23:56;95737;;;8.83;64.91
2711;BME280;20721;47.402;8.550;2022-11-15T06:25:01;95739;;;8.82;65.04
2711;BME280;20721;47.402;8.550;2022-11-15T06:25:57;95737;;;8.80;64.96
2711;BME280;20721;47.402;8.550;2022-11-15T06:28:56;95744;;;8.83;64.94
2711;BME280;20721;47.402;8.550;2022-11-15T06:29:56;95740;;;8.84;64.98
2711;BME280;20721;47.402;8.550;2022-11-15T06:31:03;95740;;;8.85;64.90
2711;BME280;20721;47.402;8.550;2022-11-15T06:31:56;95742;;;8.87;64.81
2711;BME280;20721;47.402;8.550;2022-11-15T06:33:00;95739;;;8.88;64.79
2711;BME280;20721;47.402;8.550;2022-11-15T06:33:56;95736;;;8.91;64.69
2711;BME280;20721;47.402;8.550;2022-11-15T06:34:56;95736;;;8.92;64.51
2711;BME280;20721;47.402;8.550;2022-11-15T06:35:59;95736;;;8.91;64.59
2711;BME280;20721;47.402;8.550;2022-11-15T06:36:56;95737;;;8.92;64.62
2711;BME280;20721;47.402;8.550;2022-11-15T06:38:01;95738;;;8.94;64.34
2711;BME280;20721;47.402;8.550;2022-11-15T06:38:56;95733;;;8.93;64.42
2711;BME280;20721;47.402;8.550;2022-11-15T06:39:56;95735;;;8.91;64.40
2711;BME280;20721;47.402;8.550;2022-11-15T06:41:04;95736;;;8.89;64.50
2711;BME280;20721;47.402;8.550;2022-11-15T06:41:56;95737;;;8.87;64.69
2711;BME280;20721;47.402;8.550;2022-11-15T06:42:59;95736;;;8.86;64.83
2711;BME280;20721;47.402;8.550;2022-11-15T06:44:56;95730;;;8.87;64.95
2711;BME280;20721;47.402;8.550;2022-11-15T06:45:58;95731;;;8.89;64.93
2711;BME280;20721;47.402;8.550;2022-11-15T06:46:56;95727;;;8.92;64.95
2711;BME280;20721;47.402;8.550;2022-11-15T06:47:56;95728;;;8.95;64.85
2711;BME280;20721;47.402;8.550;2022-11-15T06:48:56;95726;;;8.96;64.80
2711;BME280;20721;47.402;8.550;2022-11-15T06:49:56;95725;;;8.99;64.72
2711;BME280;20721;47.402;8.550;2022-11-15T06:50:57;95725;;;9.01;64.69
2711;BME280;20721;47.402;8.550;2022-11-15T06:51:56;95726;;;9.03;64.72
2711;BME280;20721;47.402;8.550;2022-11-15T06:53:00;95730;;;9.05;64.73
2711;BME280;20721;47.402;8.550;2022-11-15T06:53:56;95726;;;9.07;64.58
2711;BME280;20721;47.402;8.550;2022-11-15T06:54:56;95732;;;9.09;64.59
2711;BME280;20721;47.402;8.550;2022-11-15T06:56:00;95733;;;9.12;64.63
2711;BME280;20721;47.402;8.550;2022-11-15T06:56:56;95734;;;9.16;64.58
2711;BME280;20721;47.402;8.550;2022-11-15T06:57:56;95731;;;9.19;64.65
2711;BME280;20721;47.402;8.550;2022-11-15T06:58:56;95731;;;9.23;64.59
2711;BME280;20721;47.402;8.550;2022-11-15T06:59:56;95731;;;9.25;64.38
2711;BME280;20721;47.402;8.550;2022-11-15T07:01:56;95736;;;9.24;64.44
2711;BME280;20721;47.402;8.550;2022-11-15T07:04:56;95740;;;9.25;64.59
2711;BME280;20721;47.402;8.550;2022-11-15T07:05:56;95737;;;9.28;64.46
2711;BME280;20721;47.402;8.550;2022-11-15T07:06:56;95736;;;9.30;64.36
2711;BME280;20721;47.402;8.550;2022-11-15T07:10:58;95738;;;9.29;64.32
2711;BME280;20721;47.402;8.550;2022-11-15T07:11:56;95740;;;9.27;64.23
2711;BME280;20721;47.402;8.550;2022-11-15T07:12:56;95739;;;9.24;64.30
2711;BME280;20721;47.402;8.550;2022-11-15T07:13:56;95740;;;9.22;64.47
2711;BME280;20721;47.402;8.550;2022-11-15T07:16:56;95733;;;9.18;64.33